createdAt,value
2018-02-27T00:01:40.903Z,36.20
2018-02-27T00:04:08.356Z,36.30
2018-02-27T00:06:35.868Z,36.20
2018-02-27T00:09:03.331Z,36.30
2018-02-27T00:11:30.834Z,36.30
2018-02-27T00:13:58.304Z,36.50
2018-02-27T00:16:25.767Z,36.40
2018-02-27T00:18:53.252Z,36.40
2018-02-27T00:21:20.808Z,36.30
2018-02-27T00:23:48.278Z,36.50
2018-02-27T00:26:16.509Z,36.80
2018-02-27T00:28:43.985Z,36.50
2018-02-27T00:31:11.440Z,36.90
2018-02-27T00:33:38.932Z,36.90
2018-02-27T00:36:07.159Z,37.00
2018-02-27T00:38:34.620Z,36.80
2018-02-27T00:41:02.089Z,36.90
2018-02-27T00:43:29.662Z,37.10
2018-02-27T00:45:57.132Z,37.20
2018-02-27T00:48:25.361Z,37.60
2018-02-27T00:50:52.847Z,37.20
2018-02-27T00:53:21.817Z,37.40
2018-02-27T00:55:49.288Z,37.30
2018-02-27T00:58:16.744Z,37.60
2018-02-27T01:00:44.213Z,37.80
2018-02-27T01:03:12.442Z,38.00
2018-02-27T01:05:40.041Z,38.00
2018-02-27T01:08:07.503Z,38.10
2018-02-27T01:10:35.062Z,38.00
2018-02-27T01:13:02.549Z,38.00
2018-02-27T01:15:30.044Z,38.10
2018-02-27T01:17:57.530Z,38.10
2018-02-27T01:20:24.997Z,38.30
2018-02-27T01:22:52.520Z,38.20
2018-02-27T01:25:19.984Z,38.20
2018-02-27T01:27:47.562Z,38.30
2018-02-27T01:30:15.133Z,38.40
2018-02-27T01:32:42.608Z,38.50
2018-02-27T01:35:10.133Z,38.60
2018-02-27T01:37:37.608Z,38.80
2018-02-27T01:40:05.153Z,39.00
2018-02-27T01:42:32.625Z,39.00
2018-02-27T01:45:00.881Z,39.00
2018-02-27T01:47:28.442Z,38.90
2018-02-27T01:49:55.896Z,39.20
2018-02-27T01:52:23.431Z,39.10
2018-02-27T01:54:50.885Z,39.30
2018-02-27T01:57:18.344Z,39.40
2018-02-27T01:59:45.829Z,39.50
2018-02-27T02:02:13.380Z,39.80
2018-02-27T02:04:42.357Z,39.70
2018-02-27T02:07:09.833Z,39.70
2018-02-27T02:09:37.388Z,39.70
2018-02-27T02:12:04.954Z,39.50
2018-02-27T02:14:32.505Z,39.50
2018-02-27T02:17:00.070Z,39.50
2018-02-27T02:19:27.630Z,39.70
2018-02-27T02:21:55.187Z,39.70
2018-02-27T02:24:22.660Z,40.00
2018-02-27T02:26:50.919Z,40.40
2018-02-27T02:29:18.479Z,39.90
2018-02-27T02:31:46.767Z,39.70
2018-02-27T02:34:14.234Z,39.70
2018-02-27T02:36:42.468Z,39.80
2018-02-27T02:39:09.928Z,39.70
2018-02-27T02:41:37.394Z,39.70
2018-02-27T02:44:04.968Z,39.60
2018-02-27T02:46:32.528Z,39.80
2018-02-27T02:49:00.047Z,40.00
2018-02-27T02:51:27.542Z,39.90
2018-02-27T02:53:55.019Z,39.70
2018-02-27T02:56:23.236Z,39.70
2018-02-27T02:58:50.710Z,39.60
2018-02-27T03:01:18.174Z,39.50
2018-02-27T03:03:45.646Z,39.60
2018-02-27T03:06:13.196Z,39.80
2018-02-27T03:08:40.659Z,40.20
2018-02-27T03:11:08.133Z,39.80
2018-02-27T03:13:36.356Z,39.60
2018-02-27T03:16:03.838Z,39.50
2018-02-27T03:18:31.311Z,39.80
2018-02-27T03:20:59.554Z,39.50
2018-02-27T03:23:27.016Z,39.40
2018-02-27T03:25:54.641Z,39.60
2018-02-27T03:28:22.111Z,40.00
2018-02-27T03:30:49.585Z,40.30
2018-02-27T03:33:17.046Z,40.10
2018-02-27T03:35:44.514Z,40.00
2018-02-27T03:38:11.988Z,40.00
2018-02-27T03:40:40.217Z,40.10
2018-02-27T03:43:07.697Z,39.80
2018-02-27T03:45:35.278Z,39.70
2018-02-27T03:48:03.529Z,40.40
2018-02-27T03:50:31.112Z,39.80
2018-02-27T03:52:59.341Z,40.90
2018-02-27T03:55:26.821Z,40.10
2018-02-27T03:57:54.279Z,40.60
2018-02-27T04:00:21.847Z,40.50
2018-02-27T04:02:49.321Z,40.50
2018-02-27T04:05:17.565Z,40.80
2018-02-27T04:07:45.030Z,40.70
2018-02-27T04:10:12.606Z,40.60
2018-02-27T04:12:40.841Z,40.90
2018-02-27T04:15:08.322Z,40.50
2018-02-27T04:17:35.787Z,40.60
2018-02-27T04:20:03.341Z,40.80
2018-02-27T04:22:30.812Z,40.90
2018-02-27T04:24:59.090Z,41.10
2018-02-27T04:27:27.351Z,40.80
2018-02-27T04:29:54.908Z,40.70
2018-02-27T04:32:22.378Z,41.00
2018-02-27T04:34:50.606Z,41.20
2018-02-27T04:37:18.074Z,41.10
2018-02-27T04:39:45.554Z,41.00
2018-02-27T04:42:13.113Z,41.20
2018-02-27T04:44:40.674Z,41.20
2018-02-27T04:47:08.225Z,41.30
2018-02-27T04:49:35.698Z,41.10
2018-02-27T04:52:03.966Z,40.90
2018-02-27T04:54:31.521Z,40.90
2018-02-27T04:56:58.998Z,40.70
2018-02-27T04:59:27.227Z,40.30
2018-02-27T05:01:54.697Z,40.20
2018-02-27T05:04:22.172Z,40.30
2018-02-27T05:06:50.446Z,40.50
2018-02-27T05:09:18.007Z,40.40
2018-02-27T05:11:45.480Z,40.60
2018-02-27T05:14:13.734Z,40.60
2018-02-27T05:16:41.220Z,40.60
2018-02-27T05:19:08.680Z,40.60
2018-02-27T05:21:36.136Z,40.60
2018-02-27T05:24:03.665Z,40.70
2018-02-27T05:26:31.124Z,40.90
2018-02-27T05:28:58.599Z,40.90
2018-02-27T05:31:26.857Z,41.40
2018-02-27T05:33:54.325Z,41.40
2018-02-27T05:36:22.572Z,41.30
2018-02-27T05:38:50.136Z,41.20
2018-02-27T05:41:17.704Z,41.50
2018-02-27T05:43:45.313Z,42.30
2018-02-27T05:46:12.827Z,41.60
2018-02-27T05:48:40.381Z,41.40
2018-02-27T05:51:07.840Z,41.40
2018-02-27T05:53:35.388Z,41.30
2018-02-27T05:56:02.870Z,41.30
2018-02-27T05:58:31.104Z,41.50
2018-02-27T06:00:58.693Z,41.50
2018-02-27T06:03:26.153Z,41.60
2018-02-27T06:05:54.397Z,42.40
2018-02-27T06:08:21.878Z,41.80
2018-02-27T06:10:49.345Z,41.90
2018-02-27T06:13:17.580Z,42.70
2018-02-27T06:15:45.051Z,42.60
2018-02-27T06:18:12.525Z,42.30
2018-02-27T06:20:39.984Z,42.60
2018-02-27T06:23:08.209Z,42.00
2018-02-27T06:25:35.704Z,41.90
2018-02-27T06:28:03.266Z,41.90
2018-02-27T06:30:30.729Z,41.60
2018-02-27T06:32:58.962Z,42.00
2018-02-27T06:35:26.457Z,41.60
2018-02-27T06:37:53.927Z,41.30
2018-02-27T06:40:22.157Z,41.30
2018-02-27T06:42:49.714Z,41.20
2018-02-27T06:45:17.180Z,41.40
2018-02-27T06:47:44.669Z,41.00
2018-02-27T06:50:12.913Z,40.50
2018-02-27T06:52:40.382Z,40.20
2018-02-27T06:55:07.856Z,40.40
2018-02-27T06:57:35.317Z,40.50
2018-02-27T07:00:03.578Z,40.80
2018-02-27T07:02:31.047Z,40.80
2018-02-27T07:04:59.361Z,41.40
2018-02-27T07:07:26.826Z,41.10
2018-02-27T07:09:54.297Z,41.00
2018-02-27T07:12:21.766Z,40.30
2018-02-27T07:14:49.257Z,40.30
2018-02-27T07:17:17.513Z,40.40
2018-02-27T07:19:44.990Z,40.30
2018-02-27T07:22:13.230Z,40.40
2018-02-27T07:24:40.704Z,40.40
2018-02-27T07:27:08.167Z,40.20
2018-02-27T07:29:35.631Z,40.00
2018-02-27T07:32:03.877Z,40.00
2018-02-27T07:34:31.343Z,40.00
2018-02-27T07:36:58.905Z,40.20
2018-02-27T07:39:27.951Z,39.80
2018-02-27T07:41:55.424Z,39.80
2018-02-27T07:44:22.894Z,39.90
2018-02-27T07:46:50.361Z,40.20
2018-02-27T07:49:17.929Z,39.50
2018-02-27T07:51:45.431Z,39.70
2018-02-27T07:54:12.889Z,39.90
2018-02-27T07:56:40.409Z,40.20
2018-02-27T07:59:07.961Z,39.40
2018-02-27T08:01:35.443Z,39.60
2018-02-27T08:04:03.683Z,39.40
2018-02-27T08:06:31.178Z,39.40
2018-02-27T08:08:59.431Z,38.60
2018-02-27T08:11:26.990Z,38.60
2018-02-27T08:13:54.593Z,38.90
2018-02-27T08:16:22.057Z,38.50
2018-02-27T08:18:49.537Z,38.00
2018-02-27T08:21:17.010Z,37.80
2018-02-27T08:23:44.506Z,37.50
2018-02-27T08:26:11.977Z,36.70
2018-02-27T08:28:39.493Z,36.50
2018-02-27T08:31:06.922Z,37.30
2018-02-27T08:33:34.381Z,36.70
2018-02-27T08:36:01.848Z,36.40
2018-02-27T08:38:29.345Z,36.80
2018-02-27T08:40:56.827Z,36.70
2018-02-27T08:43:24.294Z,35.20
2018-02-27T08:45:51.767Z,35.90
2018-02-27T08:48:19.228Z,36.20
2018-02-27T08:50:46.710Z,35.80
2018-02-27T08:53:14.936Z,36.10
2018-02-27T08:55:42.388Z,35.50
2018-02-27T08:58:09.853Z,35.90
2018-02-27T09:00:37.350Z,36.40
2018-02-27T09:03:05.594Z,35.90
2018-02-27T09:05:33.056Z,35.20
2018-02-27T09:08:00.540Z,35.40
2018-02-27T09:10:28.773Z,35.30
2018-02-27T09:12:56.249Z,35.30
2018-02-27T09:15:23.715Z,34.80
2018-02-27T09:17:51.276Z,34.50
2018-02-27T09:20:18.844Z,35.20
2018-02-27T09:22:46.436Z,35.70
2018-02-27T09:25:13.907Z,34.80
2018-02-27T09:27:41.874Z,34.20
2018-02-27T09:30:09.739Z,35.40
2018-02-27T09:32:37.346Z,36.20
2018-02-27T09:35:06.316Z,34.10
2018-02-27T09:37:33.839Z,34.10
2018-02-27T09:40:02.077Z,34.40
2018-02-27T09:42:29.542Z,34.40
2018-02-27T09:44:57.782Z,33.30
2018-02-27T09:47:26.546Z,33.20
2018-02-27T09:49:54.019Z,33.70
2018-02-27T09:52:21.509Z,33.50
2018-02-27T09:54:48.989Z,34.90
2018-02-27T09:57:17.240Z,34.90
2018-02-27T09:59:44.745Z,34.90
2018-02-27T10:02:12.213Z,33.80
2018-02-27T10:04:39.673Z,33.40
2018-02-27T10:07:07.130Z,33.50
2018-02-27T10:09:34.597Z,32.60
2018-02-27T10:12:02.056Z,29.30
2018-02-27T10:14:29.536Z,29.70
2018-02-27T10:16:56.996Z,29.10
2018-02-27T10:19:24.547Z,30.90
2018-02-27T10:21:52.021Z,31.60
2018-02-27T10:24:20.283Z,31.60
2018-02-27T10:26:47.753Z,31.30
2018-02-27T10:29:16.023Z,30.10
2018-02-27T10:31:43.449Z,30.00
2018-02-27T10:34:10.909Z,29.20
2018-02-27T10:36:38.390Z,30.00
2018-02-27T10:39:05.854Z,30.50
2018-02-27T10:41:34.081Z,27.20
2018-02-27T10:44:01.582Z,27.20
2018-02-27T10:46:29.050Z,27.10
2018-02-27T10:48:57.290Z,28.30
2018-02-27T10:51:24.850Z,28.30
2018-02-27T10:53:52.315Z,29.60
2018-02-27T10:56:19.769Z,28.30
2018-02-27T10:58:47.285Z,27.90
2018-02-27T11:01:20.479Z,26.30
2018-02-27T11:03:47.941Z,25.10
2018-02-27T11:06:15.420Z,26.50
2018-02-27T11:08:42.864Z,26.90
2018-02-27T11:11:10.332Z,25.80
2018-02-27T11:13:37.793Z,25.80
2018-02-27T11:16:05.259Z,25.80
2018-02-27T11:18:32.828Z,23.50
2018-02-27T11:21:00.348Z,24.70
2018-02-27T11:23:27.847Z,25.00
2018-02-27T11:25:55.303Z,23.50
2018-02-27T11:28:22.807Z,24.60
2018-02-27T11:30:50.281Z,24.10
2018-02-27T11:33:17.732Z,24.20
2018-02-27T11:35:45.201Z,23.10
2018-02-27T11:38:12.678Z,26.00
2018-02-27T11:40:40.150Z,24.10
2018-02-27T11:43:08.422Z,22.90
2018-02-27T11:45:36.657Z,23.20
2018-02-27T11:48:04.142Z,23.40
2018-02-27T11:50:31.696Z,22.30
2018-02-27T11:52:59.151Z,24.40
2018-02-27T11:55:26.710Z,24.80
2018-02-27T11:57:54.180Z,24.10
2018-02-27T12:00:21.724Z,23.00
2018-02-27T12:02:49.290Z,22.40
2018-02-27T12:05:16.772Z,22.20
2018-02-27T12:07:45.005Z,21.20
2018-02-27T12:10:12.498Z,21.10
2018-02-27T12:12:40.735Z,18.20
2018-02-27T12:15:08.220Z,18.20
2018-02-27T12:17:35.774Z,19.00
2018-02-27T12:20:03.228Z,19.80
2018-02-27T12:22:30.796Z,20.20
2018-02-27T12:24:58.250Z,21.10
2018-02-27T12:27:25.802Z,20.30
2018-02-27T12:29:53.264Z,21.80
2018-02-27T12:32:20.743Z,22.50
2018-02-27T12:34:48.969Z,22.30
2018-02-27T12:37:16.429Z,22.30
2018-02-27T12:39:43.889Z,23.20
2018-02-27T12:42:11.354Z,23.70
2018-02-27T12:44:38.930Z,23.60
2018-02-27T12:47:07.346Z,24.00
2018-02-27T12:49:35.536Z,24.50
2018-02-27T12:52:03.004Z,24.10
2018-02-27T12:54:30.485Z,23.60
2018-02-27T12:56:58.088Z,23.90
2018-02-27T12:59:25.560Z,24.00
2018-02-27T13:01:53.069Z,24.30
2018-02-27T13:04:20.613Z,24.40
2018-02-27T13:06:48.173Z,24.60
2018-02-27T13:09:15.742Z,24.80
2018-02-27T13:11:43.202Z,25.00
2018-02-27T13:14:10.749Z,25.50
2018-02-27T13:16:38.320Z,26.00
2018-02-27T13:19:05.773Z,26.00
2018-02-27T13:21:34.048Z,25.90
2018-02-27T13:24:01.493Z,25.90
2018-02-27T13:26:29.066Z,26.50
2018-02-27T13:28:56.527Z,26.80
2018-02-27T13:31:24.801Z,27.40
2018-02-27T13:33:52.252Z,27.30
2018-02-27T13:36:19.712Z,27.20
2018-02-27T13:38:47.168Z,26.30
2018-02-27T13:41:15.414Z,26.40
2018-02-27T13:43:42.873Z,26.60
2018-02-27T13:46:10.344Z,26.60
2018-02-27T13:48:45.759Z,26.90
2018-02-27T13:51:05.360Z,27.60
2018-02-27T13:53:32.911Z,28.00
2018-02-27T13:56:01.917Z,28.00
2018-02-27T13:58:29.369Z,28.00
2018-02-27T14:00:57.598Z,27.90
2018-02-27T14:03:25.071Z,27.90
2018-02-27T14:05:52.560Z,28.00
2018-02-27T14:08:20.111Z,27.90
2018-02-27T14:10:49.119Z,28.30
2018-02-27T14:13:16.673Z,28.30
2018-02-27T14:15:44.234Z,28.60
2018-02-27T14:18:11.787Z,28.60
2018-02-27T14:20:39.502Z,28.70
2018-02-27T14:23:06.992Z,28.80
2018-02-27T14:25:34.449Z,29.10
2018-02-27T14:28:01.908Z,28.70
2018-02-27T14:30:29.382Z,28.70
2018-02-27T14:32:56.937Z,29.00
2018-02-27T14:35:24.406Z,28.90
2018-02-27T14:37:51.949Z,29.10
2018-02-27T14:40:19.486Z,29.70
2018-02-27T14:42:47.682Z,30.40
2018-02-27T14:45:15.246Z,30.40
2018-02-27T14:47:42.797Z,31.00
2018-02-27T14:50:10.266Z,30.90
2018-02-27T14:52:37.747Z,30.80
2018-02-27T14:55:05.992Z,30.90
2018-02-27T14:57:33.445Z,30.90
2018-02-27T15:00:00.903Z,31.40
2018-02-27T15:02:28.361Z,31.60
2018-02-27T15:04:55.816Z,32.10
2018-02-27T15:07:23.274Z,33.20
2018-02-27T15:09:50.838Z,34.00
2018-02-27T15:12:18.306Z,34.60
2018-02-27T15:14:46.554Z,34.90
2018-02-27T15:17:14.021Z,34.80
2018-02-27T15:19:41.480Z,34.20
2018-02-27T15:22:08.936Z,34.80
2018-02-27T15:24:36.501Z,35.00
2018-02-27T15:27:04.768Z,35.30
2018-02-27T15:29:32.248Z,34.60
2018-02-27T15:32:00.485Z,34.50
2018-02-27T15:34:27.953Z,34.40
2018-02-27T15:36:55.522Z,35.10
2018-02-27T15:39:22.980Z,35.70
2018-02-27T15:41:50.442Z,36.50
2018-02-27T15:44:18.698Z,36.00
2018-02-27T15:46:46.167Z,36.00
2018-02-27T15:49:15.154Z,35.80
2018-02-27T15:51:42.620Z,35.80
2018-02-27T15:54:10.076Z,35.70
2018-02-27T15:56:37.683Z,35.70
2018-02-27T15:59:05.241Z,35.50
2018-02-27T16:01:32.705Z,36.40
2018-02-27T16:04:00.196Z,36.20
2018-02-27T16:06:27.675Z,36.20
2018-02-27T16:08:56.007Z,36.60
2018-02-27T16:11:23.480Z,36.60
2018-02-27T16:13:51.051Z,37.60
2018-02-27T16:16:18.532Z,38.60
2018-02-27T16:18:46.775Z,39.50
2018-02-27T16:21:14.295Z,39.50
2018-02-27T16:23:41.786Z,39.70
2018-02-27T16:26:09.245Z,39.50
2018-02-27T16:28:36.803Z,39.40
2018-02-27T16:31:04.262Z,39.20
2018-02-27T16:33:36.656Z,39.70
2018-02-27T16:36:04.889Z,39.80
2018-02-27T16:38:32.438Z,39.70
2018-02-27T16:40:59.907Z,40.50
2018-02-27T16:43:27.384Z,40.60
2018-02-27T16:45:54.940Z,40.50
2018-02-27T16:48:22.497Z,41.10
2018-02-27T16:50:49.979Z,41.70
2018-02-27T16:53:18.233Z,42.30
2018-02-27T16:55:45.792Z,42.20
2018-02-27T16:58:13.268Z,43.00
2018-02-27T17:00:41.527Z,43.30
2018-02-27T17:03:08.988Z,43.30
2018-02-27T17:05:36.471Z,43.20
2018-02-27T17:08:03.942Z,43.90
2018-02-27T17:10:31.408Z,44.40
2018-02-27T17:12:58.915Z,45.00
2018-02-27T17:15:26.421Z,44.50
2018-02-27T17:17:53.929Z,44.30
2018-02-27T17:20:21.395Z,45.20
2018-02-27T17:22:48.865Z,45.10
2018-02-27T17:25:17.172Z,48.50
2018-02-27T17:27:44.664Z,48.50
2018-02-27T17:30:12.148Z,50.10
2018-02-27T17:32:40.377Z,51.10
2018-02-27T17:35:07.849Z,51.00
2018-02-27T17:37:35.429Z,53.00
2018-02-27T17:40:04.427Z,53.10
2018-02-27T17:42:32.691Z,53.60
2018-02-27T17:45:00.258Z,53.50
2018-02-27T17:47:27.868Z,53.60
2018-02-27T17:49:55.367Z,53.80
2018-02-27T17:52:22.926Z,53.00
2018-02-27T17:54:50.394Z,52.70
2018-02-27T17:57:17.874Z,52.70
2018-02-27T17:59:46.110Z,52.00
2018-02-27T18:02:13.628Z,52.00
2018-02-27T18:04:41.088Z,51.60
2018-02-27T18:07:08.584Z,51.50
2018-02-27T18:09:36.040Z,51.20
2018-02-27T18:12:03.512Z,51.20
2018-02-27T18:14:31.752Z,50.70
2018-02-27T18:16:59.229Z,50.50
2018-02-27T18:19:26.786Z,50.90
2018-02-27T18:21:54.265Z,50.30
2018-02-27T18:24:22.530Z,50.70
2018-02-27T18:26:49.998Z,50.70
2018-02-27T18:29:18.250Z,50.10
2018-02-27T18:31:45.720Z,50.00
2018-02-27T18:34:13.430Z,50.10
2018-02-27T18:36:40.904Z,50.20
2018-02-27T18:39:08.384Z,50.00
2018-02-27T18:41:36.628Z,50.00
2018-02-27T18:44:04.279Z,49.90
2018-02-27T18:46:32.388Z,49.40
2018-02-27T18:48:59.970Z,49.30
2018-02-27T18:51:28.215Z,49.80
2018-02-27T18:53:55.676Z,49.80
2018-02-27T18:56:23.160Z,49.70
2018-02-27T18:58:51.400Z,50.10
2018-02-27T19:01:18.977Z,50.00
2018-02-27T19:03:46.440Z,49.90
2018-02-27T19:06:13.914Z,49.90
2018-02-27T19:08:42.146Z,50.10
2018-02-27T19:11:09.678Z,50.10
2018-02-27T19:13:37.185Z,50.50
2018-02-27T19:16:04.659Z,50.70
2018-02-27T19:18:32.898Z,51.20
2018-02-27T19:21:00.376Z,51.10
2018-02-27T19:23:27.823Z,51.70
2018-02-27T19:25:55.388Z,51.60
2018-02-27T19:28:22.853Z,52.00
2018-02-27T19:30:50.302Z,52.00
2018-02-27T19:33:17.826Z,52.20
2018-02-27T19:35:45.475Z,52.50
2018-02-27T19:38:13.100Z,52.70
2018-02-27T19:40:41.332Z,53.00
2018-02-27T19:43:08.910Z,52.90
2018-02-27T19:45:36.382Z,52.30
2018-02-27T19:48:04.659Z,52.80
2018-02-27T19:50:32.122Z,52.70
2018-02-27T19:53:00.380Z,53.00
2018-02-27T19:55:27.850Z,53.00
2018-02-27T19:57:56.117Z,53.30
2018-02-27T20:00:23.928Z,53.30
2018-02-27T20:02:51.488Z,53.50
2018-02-27T20:05:19.251Z,54.50
2018-02-27T20:07:46.745Z,55.40
2018-02-27T20:10:14.234Z,56.20
2018-02-27T20:12:42.473Z,57.10
2018-02-27T20:15:10.038Z,57.10
2018-02-27T20:17:43.202Z,56.50
2018-02-27T20:20:10.723Z,56.80
2018-02-27T20:22:44.562Z,57.40
2018-02-27T20:25:12.095Z,57.40
2018-02-27T20:27:39.570Z,57.60
2018-02-27T20:30:07.042Z,58.10
2018-02-27T20:32:34.501Z,57.40
2018-02-27T20:35:02.048Z,56.90
2018-02-27T20:37:29.562Z,57.60
2018-02-27T20:39:57.799Z,58.30
2018-02-27T20:42:25.294Z,58.30
2018-02-27T20:44:53.529Z,58.50
2018-02-27T20:47:20.996Z,58.40
2018-02-27T20:49:48.448Z,58.40
2018-02-27T20:52:15.912Z,57.70
2018-02-27T20:54:43.408Z,56.90
2018-02-27T20:57:11.709Z,56.40
2018-02-27T20:59:39.267Z,56.30
2018-02-27T21:02:06.740Z,56.70
2018-02-27T21:04:34.201Z,55.40
2018-02-27T21:07:01.686Z,54.10
2018-02-27T21:09:29.153Z,52.60
2018-02-27T21:11:56.635Z,52.40
2018-02-27T21:14:24.092Z,53.30
2018-02-27T21:16:51.581Z,52.70
2018-02-27T21:19:19.039Z,52.60
2018-02-27T21:21:46.515Z,51.50
2018-02-27T21:24:14.076Z,51.30
2018-02-27T21:26:41.637Z,51.00
2018-02-27T21:29:09.095Z,50.50
2018-02-27T21:31:36.676Z,50.60
2018-02-27T21:34:04.897Z,50.60
2018-02-27T21:36:32.388Z,50.50
2018-02-27T21:38:59.954Z,50.60
2018-02-27T21:41:27.409Z,50.40
2018-02-27T21:43:54.868Z,50.10
2018-02-27T21:46:22.353Z,49.90
2018-02-27T21:48:50.576Z,49.00
2018-02-27T21:51:18.032Z,48.90
2018-02-27T21:53:45.502Z,48.70
2018-02-27T21:56:12.957Z,48.60
2018-02-27T21:58:40.437Z,48.50
2018-02-27T22:01:08.678Z,49.00
2018-02-27T22:03:36.176Z,48.90
2018-02-27T22:06:04.432Z,47.70
2018-02-27T22:08:31.921Z,47.60
2018-02-27T22:10:59.378Z,47.20
2018-02-27T22:13:26.847Z,46.90
2018-02-27T22:15:54.317Z,46.90
2018-02-27T22:18:21.781Z,46.90
2018-02-27T22:20:49.260Z,46.30
2018-02-27T22:23:16.721Z,46.20
2018-02-27T22:25:44.200Z,46.40
2018-02-27T22:28:12.447Z,45.70
2018-02-27T22:30:39.909Z,45.60
2018-02-27T22:33:07.400Z,45.60
2018-02-27T22:35:35.647Z,45.40
2018-02-27T22:38:03.132Z,45.30
2018-02-27T22:40:31.483Z,45.20
2018-02-27T22:42:58.935Z,45.10
2018-02-27T22:45:26.410Z,45.10
2018-02-27T22:47:54.680Z,45.80
2018-02-27T22:50:22.917Z,46.30
2018-02-27T22:52:50.389Z,46.70
2018-02-27T22:55:17.854Z,46.30
2018-02-27T22:57:45.335Z,46.30
2018-02-27T23:00:13.588Z,46.70
2018-02-27T23:02:41.129Z,46.70
2018-02-27T23:05:08.586Z,46.80
2018-02-27T23:07:36.165Z,46.90
2018-02-27T23:10:03.630Z,47.40
2018-02-27T23:12:31.097Z,47.20
2018-02-27T23:14:59.334Z,47.40
2018-02-27T23:17:27.009Z,47.20
2018-02-27T23:19:54.477Z,47.40
2018-02-27T23:22:22.025Z,47.40
2018-02-27T23:24:50.763Z,47.90
2018-02-27T23:27:18.636Z,47.80
2018-02-27T23:29:46.190Z,47.90
2018-02-27T23:32:13.658Z,48.10
2018-02-27T23:34:44.843Z,48.50
2018-02-27T23:37:12.351Z,48.90
2018-02-27T23:39:39.827Z,49.20
2018-02-27T23:42:07.306Z,48.90
2018-02-27T23:44:34.872Z,49.00
2018-02-27T23:47:02.435Z,49.20
2018-02-27T23:49:29.933Z,49.30
2018-02-27T23:51:57.394Z,49.20
2018-02-27T23:54:24.870Z,49.40
2018-02-27T23:56:52.332Z,49.30
2018-02-27T23:59:19.873Z,49.50
